createdAt,value
2023-01-31T00:03:35.411Z,5.06
2023-01-31T00:08:39.847Z,4.92
2023-01-31T00:13:43.180Z,4.85
2023-01-31T00:18:46.927Z,4.56
2023-01-31T00:23:52.362Z,4.59
2023-01-31T00:28:57.166Z,4.60
2023-01-31T00:34:00.258Z,4.87
2023-01-31T00:39:06.977Z,4.91
2023-01-31T00:44:09.839Z,4.98
2023-01-31T00:49:14.649Z,4.75
2023-01-31T00:54:19.097Z,4.71
2023-01-31T00:59:22.052Z,4.70
2023-01-31T01:04:24.955Z,4.94
2023-01-31T01:09:29.231Z,5.07
2023-01-31T01:14:33.258Z,5.03
2023-01-31T01:19:36.309Z,4.93
2023-01-31T01:24:43.910Z,4.85
2023-01-31T01:29:46.897Z,4.77
2023-01-31T01:34:49.855Z,4.65
2023-01-31T01:39:54.212Z,4.66
2023-01-31T01:44:59.691Z,4.66
2023-01-31T01:50:08.648Z,4.81
2023-01-31T01:55:19.385Z,4.56
2023-01-31T02:00:25.093Z,4.64
2023-01-31T02:05:32.087Z,4.69
2023-01-31T02:10:43.248Z,4.50
2023-01-31T02:15:46.707Z,4.85
2023-01-31T02:21:13.297Z,4.99
2023-01-31T02:26:41.606Z,5.09
2023-01-31T02:32:16.604Z,4.83
2023-01-31T02:37:30.947Z,4.80
2023-01-31T02:42:38.651Z,4.95
2023-01-31T02:47:55.823Z,4.90
2023-01-31T02:53:06.918Z,4.69
2023-01-31T02:58:13.412Z,4.93
2023-01-31T03:03:23.029Z,5.08
2023-01-31T03:08:28.602Z,4.83
2023-01-31T03:13:46.076Z,4.59
2023-01-31T03:18:58.522Z,4.50
2023-01-31T03:24:06.225Z,4.39
2023-01-31T03:29:11.993Z,4.34
2023-01-31T03:34:16.914Z,4.22
2023-01-31T03:39:32.693Z,4.05
2023-01-31T03:44:43.716Z,3.93
2023-01-31T03:49:49.169Z,4.21
2023-01-31T03:54:59.717Z,4.26
2023-01-31T04:00:09.310Z,4.49
2023-01-31T04:05:20.467Z,4.71
2023-01-31T04:10:29.097Z,4.84
2023-01-31T04:15:32.199Z,4.91
2023-01-31T04:20:35.415Z,4.75
2023-01-31T04:25:39.603Z,5.03
2023-01-31T04:30:42.445Z,4.93
2023-01-31T04:35:45.278Z,5.23
2023-01-31T04:40:49.456Z,5.06
2023-01-31T04:45:52.756Z,5.08
2023-01-31T04:50:55.558Z,5.26
2023-01-31T04:55:59.813Z,5.32
2023-01-31T05:01:02.667Z,4.93
2023-01-31T05:06:05.805Z,4.68
2023-01-31T05:11:16.362Z,5.14
2023-01-31T05:16:19.626Z,5.18
2023-01-31T05:21:23.072Z,5.20
2023-01-31T05:26:32.645Z,5.38
2023-01-31T05:31:41.039Z,5.42
2023-01-31T05:36:44.024Z,5.74
2023-01-31T05:42:06.525Z,5.43
2023-01-31T05:47:12.342Z,5.52
2023-01-31T05:52:15.224Z,5.51
2023-01-31T05:57:19.763Z,5.66
2023-01-31T06:02:24.835Z,5.42
2023-01-31T06:07:27.916Z,5.63
2023-01-31T06:12:32.339Z,5.56
2023-01-31T06:17:35.366Z,5.70
2023-01-31T06:22:38.244Z,5.23
2023-01-31T06:27:43.239Z,5.54
2023-01-31T06:32:46.013Z,5.62
2023-01-31T06:37:48.851Z,5.43
2023-01-31T06:42:53.157Z,5.29
2023-01-31T06:47:56.430Z,5.62
2023-01-31T06:52:59.997Z,5.34
2023-01-31T06:58:04.236Z,5.40
2023-01-31T07:03:07.217Z,5.95
2023-01-31T07:08:09.969Z,5.67
2023-01-31T07:13:14.262Z,5.93
2023-01-31T07:18:17.454Z,5.64
2023-01-31T07:23:20.553Z,5.55
2023-01-31T07:28:24.822Z,5.58
2023-01-31T07:33:29.969Z,6.02
2023-01-31T07:38:33.612Z,5.80
2023-01-31T07:43:38.571Z,5.96
2023-01-31T07:48:41.387Z,6.18
2023-01-31T07:53:44.166Z,6.09
2023-01-31T07:58:52.102Z,6.23
2023-01-31T08:03:55.122Z,6.11
2023-01-31T08:09:03.199Z,5.85
2023-01-31T08:14:08.745Z,6.22
2023-01-31T08:19:11.682Z,6.19
2023-01-31T08:24:22.987Z,6.53
2023-01-31T08:29:28.063Z,6.83
2023-01-31T08:34:33.926Z,6.77
2023-01-31T08:39:42.086Z,6.74
2023-01-31T08:44:48.110Z,6.60
2023-01-31T08:49:51.098Z,6.78
2023-01-31T08:54:54.012Z,7.01
2023-01-31T08:59:58.351Z,6.88
2023-01-31T09:05:01.440Z,6.92
2023-01-31T09:10:04.409Z,6.65
2023-01-31T09:15:09.913Z,6.44
2023-01-31T09:20:13.137Z,6.30
2023-01-31T09:25:16.243Z,6.28
2023-01-31T09:30:21.108Z,6.37
2023-01-31T09:35:23.906Z,6.27
2023-01-31T09:40:33.183Z,6.22
2023-01-31T09:45:43.102Z,6.06
2023-01-31T09:50:51.087Z,6.12
2023-01-31T09:56:05.932Z,6.32
2023-01-31T10:01:18.585Z,6.40
2023-01-31T10:06:25.208Z,6.04
2023-01-31T10:11:36.578Z,6.95
2023-01-31T10:16:47.628Z,6.48
2023-01-31T10:21:55.047Z,6.32
2023-01-31T10:27:04.601Z,6.69
2023-01-31T10:32:17.427Z,7.01
2023-01-31T10:37:32.493Z,6.44
2023-01-31T10:42:37.646Z,6.68
2023-01-31T10:47:48.713Z,6.71
2023-01-31T10:53:10.491Z,6.92
2023-01-31T10:58:15.620Z,7.08
2023-01-31T11:03:20.393Z,7.00
2023-01-31T11:08:32.502Z,7.03
2023-01-31T11:13:35.767Z,6.80
2023-01-31T11:18:48.595Z,6.62
2023-01-31T11:23:52.249Z,6.94
2023-01-31T11:28:56.259Z,7.14
2023-01-31T11:34:02.659Z,7.08
2023-01-31T11:39:25.797Z,7.44
2023-01-31T11:44:28.731Z,7.52
2023-01-31T11:49:36.174Z,7.58
2023-01-31T11:54:43.542Z,7.15
2023-01-31T11:59:50.404Z,7.45
2023-01-31T12:04:55.793Z,7.58
2023-01-31T12:09:59.019Z,7.40
2023-01-31T12:15:03.347Z,7.64
2023-01-31T12:20:28.486Z,7.56
2023-01-31T12:25:47.251Z,7.85
2023-01-31T12:31:06.347Z,7.75
2023-01-31T12:36:23.746Z,7.69
2023-01-31T12:41:33.396Z,8.16
2023-01-31T12:46:43.359Z,8.05
2023-01-31T12:51:59.482Z,7.90
2023-01-31T12:57:18.993Z,8.24
2023-01-31T13:02:41.809Z,8.13
2023-01-31T13:07:50.749Z,8.17
2023-01-31T13:12:54.396Z,8.37
2023-01-31T13:18:03.142Z,8.11
2023-01-31T13:23:13.415Z,8.44
2023-01-31T13:28:24.041Z,7.97
2023-01-31T13:33:33.486Z,8.22
2023-01-31T13:38:42.422Z,8.34
2023-01-31T13:43:45.310Z,8.47
2023-01-31T13:49:02.781Z,8.29
2023-01-31T13:54:15.003Z,8.92
2023-01-31T13:59:24.769Z,8.59
2023-01-31T14:04:40.095Z,8.96
2023-01-31T14:10:09.173Z,8.63
2023-01-31T14:15:51.407Z,8.60
2023-01-31T14:20:54.314Z,8.49
2023-01-31T14:25:59.467Z,8.27
2023-01-31T14:31:13.696Z,8.66
2023-01-31T14:36:50.288Z,8.33
2023-01-31T14:42:42.185Z,8.36
2023-01-31T14:48:02.239Z,8.14
2023-01-31T14:53:38.661Z,7.90
2023-01-31T14:58:45.325Z,7.93
2023-01-31T15:03:55.463Z,7.91
2023-01-31T15:09:27.854Z,8.02
2023-01-31T15:14:37.583Z,8.01
2023-01-31T15:19:49.930Z,7.88
2023-01-31T15:24:57.353Z,7.68
2023-01-31T15:30:06.936Z,7.91
2023-01-31T15:35:21.935Z,7.97
2023-01-31T15:40:26.120Z,8.10
2023-01-31T15:45:30.754Z,8.11
2023-01-31T15:50:35.782Z,8.23
2023-01-31T15:55:38.780Z,8.07
2023-01-31T16:00:42.156Z,8.15
2023-01-31T16:05:50.939Z,8.30
2023-01-31T16:10:54.371Z,8.17
2023-01-31T16:15:57.738Z,7.85
2023-01-31T16:21:15.404Z,6.58
2023-01-31T16:26:24.007Z,6.35
2023-01-31T16:31:30.919Z,6.12
2023-01-31T16:36:54.017Z,5.72
2023-01-31T16:41:58.352Z,5.65
2023-01-31T16:47:01.229Z,5.64
2023-01-31T16:52:27.473Z,5.70
2023-01-31T16:57:38.840Z,5.79
2023-01-31T17:02:43.093Z,6.11
2023-01-31T17:07:49.060Z,6.26
2023-01-31T17:12:52.752Z,6.28
2023-01-31T17:17:56.581Z,6.18
2023-01-31T17:23:03.701Z,6.43
2023-01-31T17:28:07.644Z,6.34
2023-01-31T17:33:15.451Z,6.47
2023-01-31T17:38:20.041Z,6.37
2023-01-31T17:43:25.085Z,6.26
2023-01-31T17:48:27.885Z,6.32
2023-01-31T17:53:40.442Z,6.65
2023-01-31T17:58:51.885Z,6.50
2023-01-31T18:03:54.887Z,6.44
2023-01-31T18:09:03.463Z,6.52
2023-01-31T18:14:06.369Z,6.23
2023-01-31T18:19:09.173Z,6.32
2023-01-31T18:24:13.367Z,6.41
2023-01-31T18:29:19.762Z,6.62
2023-01-31T18:34:23.555Z,6.63
2023-01-31T18:39:27.884Z,6.38
2023-01-31T18:44:32.502Z,6.41
2023-01-31T18:49:35.372Z,6.48
2023-01-31T18:54:39.534Z,6.59
2023-01-31T18:59:42.319Z,6.63
2023-01-31T19:04:45.239Z,6.60
2023-01-31T19:09:49.664Z,6.32
2023-01-31T19:14:56.455Z,5.93
2023-01-31T19:19:59.461Z,6.14
2023-01-31T19:25:05.416Z,5.92
2023-01-31T19:30:09.677Z,6.12
2023-01-31T19:35:12.738Z,6.12
2023-01-31T19:40:20.881Z,6.27
2023-01-31T19:45:40.625Z,6.25
2023-01-31T19:50:45.749Z,6.04
2023-01-31T19:55:57.042Z,6.02
2023-01-31T20:01:06.941Z,5.90
2023-01-31T20:06:13.111Z,5.97
2023-01-31T20:11:17.511Z,6.31
2023-01-31T20:16:21.449Z,6.17
2023-01-31T20:21:24.904Z,6.06
2023-01-31T20:26:29.859Z,6.33
2023-01-31T20:31:33.197Z,6.15
2023-01-31T20:37:01.382Z,5.94
2023-01-31T20:42:30.743Z,6.04
2023-01-31T20:49:02.291Z,6.20
2023-01-31T20:54:37.233Z,6.07
2023-01-31T21:00:12.407Z,5.42
2023-01-31T21:05:57.543Z,5.76
2023-01-31T21:11:00.940Z,6.16
2023-01-31T21:16:15.452Z,5.81
2023-01-31T21:21:27.679Z,5.92
2023-01-31T21:26:33.256Z,6.08
2023-01-31T21:31:36.368Z,6.22
2023-01-31T21:36:40.597Z,6.52
2023-01-31T21:42:00.879Z,6.32
2023-01-31T21:47:03.794Z,6.23
2023-01-31T21:52:09.819Z,6.13
2023-01-31T21:57:12.799Z,6.29
2023-01-31T22:02:15.812Z,6.24
2023-01-31T22:07:20.027Z,5.93
2023-01-31T22:12:23.097Z,5.85
2023-01-31T22:17:29.196Z,5.87
2023-01-31T22:22:43.346Z,6.04
2023-01-31T22:28:15.852Z,6.15
2023-01-31T22:33:56.109Z,6.33
2023-01-31T22:39:05.841Z,6.09
2023-01-31T22:44:11.290Z,6.06
2023-01-31T22:49:14.121Z,6.17
2023-01-31T22:54:19.233Z,5.97
2023-01-31T22:59:22.403Z,5.89
2023-01-31T23:04:25.258Z,5.77
2023-01-31T23:09:29.787Z,5.48
2023-01-31T23:14:33.003Z,5.57
2023-01-31T23:19:38.323Z,5.80
2023-01-31T23:24:42.626Z,5.64
2023-01-31T23:29:45.464Z,5.86
2023-01-31T23:34:50.438Z,5.74
2023-01-31T23:39:54.842Z,5.66
2023-01-31T23:44:58.764Z,5.71
2023-01-31T23:50:01.619Z,5.87
2023-01-31T23:55:07.039Z,5.75
